Time;durP1;ratioP1;P1;durP2;ratioP2;P2;SDS_P1;SDS_P2;PMS_P1;PMS_P2;Temp;Humidity;BMP_temperature;BMP_pressure;BME280_temperature;BME280_humidity;BME280_pressure;Samples;Min_cycle;Max_cycle;Signal;HPM_P1;HPM_P2
2023/01/10 00:01:17;;;;;;;2.72;2.58;;;;;;;5.07;100.00;99099.81;5027856;28;20026;-73
2023/01/10 00:03:43;;;;;;;0.50;0.50;;;;;;;5.06;100.00;99100.66;5027769;28;20050;-72
2023/01/10 00:06:08;;;;;;;0.50;0.50;;;;;;;5.12;100.00;99104.06;5027553;28;20026;-74
2023/01/10 00:08:33;;;;;;;0.50;0.50;;;;;;;5.12;100.00;99110.06;5027890;28;20526;-73
2023/01/10 00:13:22;;;;;;;0.60;0.60;;;;;;;5.14;100.00;99113.47;5043044;28;20033;-72
2023/01/10 00:13:44;;;;;;;0.50;0.50;;;;;;;5.11;100.00;99105.78;5027598;28;20030;-71
2023/01/10 00:16:09;;;;;;;0.50;0.50;;;;;;;5.12;100.00;99112.63;5027877;28;20018;-72
2023/01/10 00:18:35;;;;;;;0.50;0.50;;;;;;;5.12;100.00;99111.78;5027767;28;20486;-73
2023/01/10 00:21:00;;;;;;;0.50;0.50;;;;;;;5.10;100.00;99118.66;5027592;28;20026;-73
2023/01/10 00:23:27;;;;;;;0.50;0.50;;;;;;;5.12;100.00;99114.34;5027681;28;20096;-72
2023/01/10 00:25:52;;;;;;;0.93;0.90;;;;;;;5.09;100.00;99120.38;5027361;28;20022;-73
2023/01/10 00:28:22;;;;;;;0.50;0.50;;;;;;;5.13;100.00;99121.22;5026193;28;20101;-73
2023/01/10 00:31:05;;;;;;;0.50;0.50;;;;;;;5.08;100.00;99124.66;5027497;28;20151;-73
2023/01/10 00:33:37;;;;;;;0.50;0.50;;;;;;;5.10;100.00;99123.81;5027380;28;20050;-73
2023/01/10 00:36:05;;;;;;;0.60;0.60;;;;;;;5.09;100.00;99120.38;5027148;28;20029;-74
2023/01/10 00:38:32;;;;;;;4.10;3.70;;;;;;;5.07;100.00;99128.09;5027329;28;20030;-74
2023/01/10 00:40:58;;;;;;;0.50;0.50;;;;;;;5.05;100.00;99126.38;5027302;28;20046;-73
2023/01/10 00:46:08;;;;;;;0.50;0.50;;;;;;;5.08;100.00;99131.50;5027034;28;20037;-73
2023/01/10 00:48:34;;;;;;;7.20;5.20;;;;;;;5.07;100.00;99138.41;5027224;28;20117;-73
2023/01/10 00:50:59;;;;;;;0.50;0.50;;;;;;;5.08;100.00;99140.09;5027050;28;20052;-73
2023/01/10 00:53:26;;;;;;;0.50;0.50;;;;;;;5.11;100.00;99133.22;5027008;28;20040;-73
2023/01/10 00:55:53;;;;;;;0.50;0.50;;;;;;;5.14;100.00;99143.50;5026804;28;20028;-73
2023/01/10 00:58:18;;;;;;;0.50;0.50;;;;;;;5.16;100.00;99149.50;5042046;28;20057;-73
2023/01/10 01:00:49;;;;;;;0.50;0.50;;;;;;;5.13;100.00;99158.06;5027008;28;20061;-73
2023/01/10 01:03:17;;;;;;;0.57;0.57;;;;;;;5.11;100.00;99156.38;5026936;28;20470;-72
2023/01/10 01:05:44;;;;;;;0.50;0.50;;;;;;;5.03;100.00;99151.28;5026487;28;20026;-71
2023/01/10 01:08:11;;;;;;;0.50;0.50;;;;;;;5.12;100.00;99155.50;5044117;28;20022;-72
2023/01/10 01:10:36;;;;;;;0.50;0.50;;;;;;;5.03;100.00;99144.41;5028205;28;20572;-73
2023/01/10 01:13:11;;;;;;;0.50;0.50;;;;;;;5.03;100.00;99161.56;5026634;28;20473;-73
2023/01/10 01:15:37;;;;;;;0.70;0.70;;;;;;;5.06;100.00;99170.09;5041798;28;20034;-74
2023/01/10 01:18:03;;;;;;;0.50;0.50;;;;;;;5.00;100.00;99164.16;5026801;28;20159;-73
2023/01/10 01:20:29;;;;;;;0.50;0.50;;;;;;;4.98;100.00;99171.03;5026381;28;20057;-73
2023/01/10 01:22:54;;;;;;;0.50;0.50;;;;;;;5.02;100.00;99175.28;5026593;28;20540;-73
2023/01/10 01:25:20;;;;;;;0.50;0.50;;;;;;;5.00;100.00;99190.72;5025000;28;20093;-73
2023/01/10 01:27:45;;;;;;;0.50;0.50;;;;;;;5.02;100.00;99190.72;5026383;28;20039;-72
2023/01/10 01:30:12;;;;;;;0.50;0.50;;;;;;;4.98;100.00;99183.88;5041634;28;20022;-73
2023/01/10 01:32:37;;;;;;;1.33;1.23;;;;;;;4.95;100.00;99189.91;5041628;28;20121;-74
2023/01/10 01:35:04;;;;;;;0.50;0.50;;;;;;;4.95;100.00;99201.03;5026260;28;20021;-73
2023/01/10 01:37:30;;;;;;;0.50;0.50;;;;;;;4.92;100.00;99203.63;5026193;28;20033;-73
2023/01/10 01:39:55;;;;;;;0.50;0.50;;;;;;;4.88;100.00;99196.78;5026048;28;20056;-73
2023/01/10 01:42:25;;;;;;;1.02;1.02;;;;;;;4.84;100.00;99202.78;5026121;28;20025;-73
2023/01/10 01:45:21;;;;;;;0.50;0.50;;;;;;;4.91;100.00;99201.94;5025909;28;20029;-72
2023/01/10 01:47:49;;;;;;;1.85;1.75;;;;;;;4.87;100.00;99209.66;5026220;28;20034;-72
2023/01/10 01:50:21;;;;;;;0.50;0.50;;;;;;;4.86;100.00;99210.53;5041267;28;20030;-71
2023/01/10 01:52:50;;;;;;;0.60;0.60;;;;;;;4.81;100.00;99208.81;5024662;28;20397;-71
2023/01/10 01:55:16;;;;;;;0.40;0.40;;;;;;;4.89;100.00;99224.22;5025949;28;20030;-72
2023/01/10 01:57:44;;;;;;;0.50;0.50;;;;;;;4.86;100.00;99211.38;5024754;28;20235;-71
2023/01/10 02:00:10;;;;;;;0.50;0.50;;;;;;;4.91;100.00;99221.63;5025994;28;20037;-72
2023/01/10 02:02:42;;;;;;;5.20;4.68;;;;;;;4.91;100.00;99221.63;5026094;28;20028;-71
2023/01/10 02:05:10;;;;;;;0.82;0.82;;;;;;;4.91;100.00;99225.06;5040843;28;20069;-71
2023/01/10 02:07:39;;;;;;;0.50;0.50;;;;;;;4.89;100.00;99226.78;5025642;28;20021;-71
2023/01/10 02:10:11;;;;;;;0.68;0.68;;;;;;;4.87;100.00;99225.97;5025501;28;20524;-71
2023/01/10 02:12:38;;;;;;;;;;;;;;;4.92;100.00;99244.78;5026177;28;20044;-70
2023/01/10 02:15:04;;;;;;;0.50;0.50;;;;;;;4.90;100.00;99238.81;5025640;28;19913;-70
2023/01/10 02:17:29;;;;;;;0.50;0.50;;;;;;;4.92;100.00;99255.06;5025655;28;20458;-71
2023/01/10 02:20:02;;;;;;;0.50;0.50;;;;;;;4.91;100.00;99258.50;5025546;28;20022;-70
2023/01/10 02:23:04;;;;;;;1.45;1.40;;;;;;;4.91;100.00;99257.66;5025380;28;20022;-70
2023/01/10 02:25:57;;;;;;;0.50;0.50;;;;;;;4.91;100.00;99270.50;5025184;28;20030;-70
2023/01/10 02:28:50;;;;;;;0.50;0.50;;;;;;;4.89;100.00;99267.94;5025483;28;20037;-70
2023/01/10 02:31:34;;;;;;;0.50;0.50;;;;;;;4.89;100.00;99272.25;5025261;28;20029;-70
2023/01/10 02:34:08;;;;;;;0.50;0.50;;;;;;;4.92;100.00;99272.22;5025293;28;20037;-70
2023/01/10 02:36:55;;;;;;;1.02;1.02;;;;;;;4.93;100.00;99279.06;5025418;28;20033;-70
2023/01/10 02:39:49;;;;;;;0.50;0.50;;;;;;;4.94;100.00;99270.50;5025266;28;20050;-70
2023/01/10 02:42:22;;;;;;;2.15;2.05;;;;;;;4.99;100.00;99273.91;5010388;28;20288;-70
2023/01/10 02:45:04;;;;;;;0.70;0.70;;;;;;;4.96;100.00;99268.78;5023903;28;20076;-70
2023/01/10 02:47:40;;;;;;;0.70;0.70;;;;;;;4.91;100.00;99266.22;5040687;28;20049;-70
2023/01/10 02:50:42;;;;;;;1.02;1.02;;;;;;;4.98;100.00;99276.50;5025426;28;20053;-71
2023/01/10 02:53:10;;;;;;;;;;;;;;;5.00;100.00;99292.78;5025903;28;20432;-70
2023/01/10 02:55:41;;;;;;;0.50;0.50;;;;;;;4.99;100.00;99288.47;5025177;28;19916;-70
2023/01/10 02:58:18;;;;;;;0.60;0.60;;;;;;;4.95;100.00;99288.50;5027056;28;20033;-71
2023/01/10 03:00:47;;;;;;;0.60;0.60;;;;;;;4.91;100.00;99297.09;5044621;28;20273;-72
2023/01/10 03:03:32;;;;;;;0.50;0.50;;;;;;;4.92;100.00;99292.81;5029231;28;20105;-72
2023/01/10 03:06:06;;;;;;;0.50;0.50;;;;;;;4.93;100.00;99307.38;5028867;28;20018;-71
2023/01/10 03:08:38;;;;;;;0.50;0.50;;;;;;;4.93;100.00;99308.25;5029068;28;20044;-72
2023/01/10 03:11:06;;;;;;;0.65;0.65;;;;;;;4.87;100.00;99290.25;5029153;28;20034;-71
2023/01/10 03:13:38;;;;;;;0.50;0.50;;;;;;;4.94;100.00;99302.22;5029065;28;20059;-71
2023/01/10 03:16:08;;;;;;;0.50;0.50;;;;;;;4.95;100.00;99296.22;5028944;28;20052;-71
2023/01/10 03:18:55;;;;;;;0.65;0.65;;;;;;;4.95;100.00;99300.50;5029042;28;20030;-71
2023/01/10 03:21:22;;;;;;;0.50;0.50;;;;;;;5.01;100.00;99312.50;5028713;28;20029;-71
2023/01/10 03:23:52;;;;;;;0.50;0.50;;;;;;;5.01;100.00;99323.66;5028882;28;20057;-71
2023/01/10 03:26:28;;;;;;;0.50;0.50;;;;;;;5.02;100.00;99316.75;5043747;28;20465;-71
2023/01/10 03:29:03;;;;;;;1.60;1.52;;;;;;;5.03;100.00;99319.31;5028663;28;20500;-71
2023/01/10 03:31:38;;;;;;;0.50;0.50;;;;;;;5.02;100.00;99324.47;5028823;28;20037;-71
2023/01/10 03:34:04;;;;;;;1.50;1.40;;;;;;;5.04;100.00;99333.06;5028561;28;20026;-70
2023/01/10 03:36:40;;;;;;;0.50;0.50;;;;;;;5.01;100.00;99333.06;5028231;28;20022;-71
2023/01/10 03:39:08;;;;;;;0.50;0.50;;;;;;;5.01;100.00;99330.50;5028470;28;20057;-71
2023/01/10 03:41:40;;;;;;;0.50;0.50;;;;;;;5.01;100.00;99338.22;5028705;28;20030;-71
2023/01/10 03:47:05;;;;;;;0.47;0.47;;;;;;;5.01;100.00;99339.09;5028558;28;20117;-72
2023/01/10 03:49:34;;;;;;;0.50;0.50;;;;;;;5.03;100.00;99344.22;5028338;28;20026;-72
2023/01/10 03:52:01;;;;;;;0.50;0.50;;;;;;;5.05;100.00;99345.03;5028117;28;20033;-71
2023/01/10 03:54:27;;;;;;;0.50;0.50;;;;;;;5.12;100.00;99351.91;5028146;28;20034;-72
2023/01/10 03:56:52;;;;;;;2.45;2.35;;;;;;;5.12;100.00;99362.19;5028347;28;20032;-71
2023/01/10 03:59:22;;;;;;;0.50;0.50;;;;;;;5.11;100.00;99354.47;5028269;28;20053;-71
2023/01/10 04:01:47;;;;;;;0.50;0.50;;;;;;;5.10;100.00;99363.91;5028176;28;20025;-72
2023/01/10 04:04:13;;;;;;;0.40;0.40;;;;;;;5.14;100.00;99369.91;5027969;28;20030;-72
2023/01/10 04:06:39;;;;;;;0.50;0.50;;;;;;;5.15;100.00;99372.47;5028215;28;20527;-71
2023/01/10 04:09:05;;;;;;;0.50;0.50;;;;;;;5.15;100.00;99372.47;5027629;28;20383;-71
2023/01/10 04:11:30;;;;;;;0.50;0.50;;;;;;;5.11;100.00;99369.91;5026791;28;20033;-71
2023/01/10 04:13:56;;;;;;;0.50;0.50;;;;;;;5.17;100.00;99381.06;5043148;28;20030;-71
2023/01/10 04:16:21;;;;;;;0.50;0.50;;;;;;;5.13;100.00;99375.94;5027670;28;20029;-71
2023/01/10 04:18:47;;;;;;;0.50;0.50;;;;;;;5.05;100.00;99370.78;5027834;28;20029;-71
2023/01/10 04:21:12;;;;;;;0.50;0.50;;;;;;;5.06;100.00;99386.22;5027484;28;20468;-71
2023/01/10 04:23:37;;;;;;;0.50;0.50;;;;;;;5.09;100.00;99387.94;5027732;28;20473;-71
2023/01/10 04:26:03;;;;;;;0.50;0.50;;;;;;;5.08;100.00;99399.06;5027580;28;20034;-71
2023/01/10 04:28:28;;;;;;;0.50;0.50;;;;;;;5.11;100.00;99404.22;5027603;28;20034;-71
2023/01/10 04:30:54;;;;;;;0.50;0.50;;;;;;;5.11;100.00;99411.97;5027590;28;20445;-72
2023/01/10 04:33:19;;;;;;;0.50;0.50;;;;;;;5.06;100.00;99413.66;5042588;28;20025;-71
2023/01/10 04:35:49;;;;;;;0.50;0.50;;;;;;;5.09;100.00;99423.94;5027196;28;20025;-70
2023/01/10 04:38:15;;;;;;;0.50;0.50;;;;;;;5.03;100.00;99419.66;5027536;28;20144;-71
2023/01/10 04:40:41;;;;;;;0.50;0.50;;;;;;;5.08;100.00;99424.78;5025947;28;20050;-71
2023/01/10 04:43:07;;;;;;;0.50;0.50;;;;;;;5.10;100.00;99435.94;5026186;28;20052;-71
2023/01/10 04:45:33;;;;;;;0.50;0.50;;;;;;;5.09;100.00;99441.97;5027105;28;20026;-71
2023/01/10 04:47:59;;;;;;;0.50;0.50;;;;;;;5.15;100.00;99448.81;5027134;28;20026;-71
2023/01/10 04:50:25;;;;;;;0.50;0.50;;;;;;;5.13;100.00;99456.53;5027105;28;20021;-71
2023/01/10 04:52:51;;;;;;;0.50;0.50;;;;;;;5.10;100.00;99456.53;5027069;28;20084;-72
2023/01/10 04:55:16;;;;;;;1.02;1.02;;;;;;;5.07;100.00;99462.56;5026900;28;20022;-72
2023/01/10 04:57:42;;;;;;;0.50;0.50;;;;;;;5.11;100.00;99465.13;5027163;28;20045;-72
2023/01/10 05:00:08;;;;;;;0.60;0.60;;;;;;;5.07;100.00;99471.97;5026960;28;20032;-72
2023/01/10 05:02:34;;;;;;;0.50;0.50;;;;;;;5.09;100.00;99470.28;5025654;28;20034;-72
2023/01/10 05:04:59;;;;;;;0.50;0.50;;;;;;;5.12;100.00;99465.13;5026705;28;20036;-72
2023/01/10 05:07:24;;;;;;;0.50;0.50;;;;;;;5.15;100.00;99470.25;5026611;28;20154;-72
2023/01/10 05:09:50;;;;;;;0.50;0.50;;;;;;;5.13;100.00;99482.25;5026748;28;20037;-72
2023/01/10 05:12:15;;;;;;;0.50;0.50;;;;;;;5.16;100.00;99482.25;5041913;28;20034;-72
2023/01/10 05:14:41;;;;;;;0.50;0.50;;;;;;;5.14;100.00;99481.41;5026600;28;20022;-72
2023/01/10 05:17:06;;;;;;;0.50;0.50;;;;;;;5.14;100.00;99467.69;5026624;28;20042;-73
2023/01/10 05:19:31;;;;;;;0.68;0.68;;;;;;;5.11;100.00;99476.28;5026569;28;20026;-73
2023/01/10 05:21:57;;;;;;;0.50;0.50;;;;;;;5.15;100.00;99479.69;5025698;28;20572;-74
2023/01/10 05:24:22;;;;;;;0.50;0.50;;;;;;;5.18;100.00;99492.53;5026577;28;20043;-74
2023/01/10 05:26:48;;;;;;;0.98;0.98;;;;;;;5.16;100.00;99486.56;5026418;28;20030;-74
2023/01/10 05:29:13;;;;;;;0.50;0.50;;;;;;;5.15;100.00;99497.69;5026409;28;20026;-74
2023/01/10 05:31:39;;;;;;;0.50;0.50;;;;;;;5.12;100.00;99498.56;5026393;28;20398;-73
2023/01/10 05:34:05;;;;;;;0.50;0.50;;;;;;;5.17;100.00;99498.56;5041690;28;20048;-73
2023/01/10 05:36:31;;;;;;;0.88;0.88;;;;;;;5.17;100.00;99509.72;5026073;28;20537;-72
2023/01/10 05:38:56;;;;;;;0.43;0.43;;;;;;;5.20;100.00;99511.41;5041311;28;20113;-72
2023/01/10 05:41:22;;;;;;;0.40;0.40;;;;;;;5.16;100.00;99515.69;5026476;28;20025;-72
2023/01/10 05:43:48;;;;;;;0.40;0.40;;;;;;;5.21;100.00;99519.13;5025019;28;20496;-74
2023/01/10 05:46:14;;;;;;;0.50;0.50;;;;;;;5.18;100.00;99516.56;5026038;28;20030;-74
2023/01/10 05:48:40;;;;;;;0.50;0.50;;;;;;;5.18;100.00;99521.72;5026086;28;20181;-73
2023/01/10 05:51:06;;;;;;;0.50;0.50;;;;;;;5.21;100.00;99520.84;5041103;28;20033;-72
2023/01/10 05:53:32;;;;;;;0.50;0.50;;;;;;;5.25;100.00;99529.44;5026051;28;20025;-72
2023/01/10 05:56:01;;;;;;;0.50;0.50;;;;;;;5.21;100.00;99531.13;5026008;28;20010;-72
2023/01/10 05:58:27;;;;;;;0.50;0.50;;;;;;;5.21;100.00;99542.31;5041011;28;20025;-72
2023/01/10 06:00:54;;;;;;;0.50;0.50;;;;;;;5.17;100.00;99543.16;5026140;28;20021;-72
2023/01/10 06:03:19;;;;;;;0.50;0.50;;;;;;;5.18;100.00;99549.16;5025786;28;20026;-71
2023/01/10 06:05:45;;;;;;;0.50;0.50;;;;;;;5.20;100.00;99547.44;5025427;28;20037;-73
2023/01/10 06:08:10;;;;;;;0.50;0.50;;;;;;;5.17;100.00;99540.59;5025666;28;20022;-73
2023/01/10 06:10:36;;;;;;;0.50;0.50;;;;;;;5.21;100.00;99552.59;5025768;28;20025;-73
2023/01/10 06:13:03;;;;;;;0.50;0.50;;;;;;;5.21;100.00;99562.03;5025573;28;20021;-71
2023/01/10 06:15:29;;;;;;;0.50;0.50;;;;;;;5.20;100.00;99561.19;5025628;28;20026;-71
2023/01/10 06:17:54;;;;;;;0.60;0.60;;;;;;;5.24;100.00;99558.59;5025564;28;20037;-69
2023/01/10 06:20:19;;;;;;;0.50;0.50;;;;;;;5.24;100.00;99561.19;5025486;28;20105;-70
2023/01/10 06:22:45;;;;;;;0.50;0.50;;;;;;;5.23;100.00;99565.47;5025497;28;20122;-68
2023/01/10 06:25:11;;;;;;;0.40;0.40;;;;;;;5.18;100.00;99557.75;5025308;28;20449;-69
2023/01/10 06:27:41;;;;;;;0.50;0.50;;;;;;;5.26;100.00;99564.59;5025428;28;20038;-70
2023/01/10 06:30:09;;;;;;;0.50;0.50;;;;;;;5.24;100.00;99567.16;5025444;28;20084;-70
2023/01/10 06:32:35;;;;;;;0.50;0.50;;;;;;;5.15;100.00;99568.03;5023831;28;20030;-70
2023/01/10 06:35:01;;;;;;;1.08;1.02;;;;;;;5.18;100.00;99572.31;5025064;28;20111;-70
2023/01/10 06:37:26;;;;;;;0.50;0.50;;;;;;;5.13;100.00;99574.88;5025062;28;20427;-70
2023/01/10 06:39:51;;;;;;;0.50;0.50;;;;;;;5.15;100.00;99578.34;5023534;28;20049;-70
2023/01/10 06:42:17;;;;;;;12.10;5.45;;;;;;;5.14;100.00;99586.91;5025385;28;20421;-70
2023/01/10 06:44:42;;;;;;;0.50;0.50;;;;;;;5.13;100.00;99589.50;5025088;28;20034;-70
2023/01/10 06:47:07;;;;;;;0.50;0.50;;;;;;;5.09;100.00;99601.47;5025353;28;20018;-70
2023/01/10 06:49:33;;;;;;;0.50;0.50;;;;;;;5.07;100.00;99595.47;5025319;28;20212;-70
2023/01/10 06:51:58;;;;;;;4.88;1.75;;;;;;;5.07;100.00;99598.91;5025253;28;20027;-70
2023/01/10 06:54:24;;;;;;;0.50;0.50;;;;;;;5.03;100.00;99609.19;5025120;28;20026;-70
2023/01/10 06:56:49;;;;;;;0.50;0.50;;;;;;;5.00;100.00;99612.59;5025100;28;20044;-70
2023/01/10 06:59:15;;;;;;;0.40;0.40;;;;;;;4.99;100.00;99622.88;5025099;28;20033;-70
2023/01/10 07:01:40;;;;;;;0.50;0.50;;;;;;;4.94;100.00;99613.47;5025252;28;20033;-71
2023/01/10 07:04:06;;;;;;;0.50;0.50;;;;;;;4.98;100.00;99628.91;5025290;28;20033;-71
2023/01/10 07:06:36;;;;;;;0.50;0.50;;;;;;;4.98;100.00;99632.34;5025008;28;20021;-71
2023/01/10 07:09:02;;;;;;;0.50;0.50;;;;;;;4.96;100.00;99636.63;5025273;28;20018;-71
2023/01/10 07:11:27;;;;;;;0.50;0.50;;;;;;;5.00;100.00;99652.94;5025065;28;20060;-71
2023/01/10 07:13:53;;;;;;;1.35;1.35;;;;;;;4.99;100.00;99643.47;5025229;28;20029;-70
2023/01/10 07:16:18;;;;;;;0.50;0.50;;;;;;;5.01;100.00;99642.63;5025052;28;20018;-70
2023/01/10 07:18:44;;;;;;;0.50;0.50;;;;;;;5.07;100.00;99658.09;5025196;28;20072;-70
2023/01/10 07:21:10;;;;;;;0.50;0.50;;;;;;;5.10;100.00;99649.50;5024709;28;20057;-70
2023/01/10 07:23:35;;;;;;;0.50;0.50;;;;;;;4.99;100.00;99653.75;5025171;28;20093;-70
2023/01/10 07:26:06;;;;;;;0.50;0.50;;;;;;;5.08;100.00;99664.06;5024864;28;20033;-71
2023/01/10 07:28:35;;;;;;;0.50;0.50;;;;;;;5.06;99.47;99663.22;5024950;28;20018;-71
2023/01/10 07:31:03;;;;;;;0.50;0.50;;;;;;;5.06;99.87;99666.63;5024993;28;20030;-71
2023/01/10 07:33:29;;;;;;;0.50;0.50;;;;;;;5.02;99.92;99664.06;5024988;28;20018;-72
2023/01/10 07:35:54;;;;;;;0.50;0.50;;;;;;;5.08;99.19;99679.50;5039964;28;20497;-72
2023/01/10 07:38:20;;;;;;;0.50;0.50;;;;;;;5.12;99.77;99690.69;5024944;28;20029;-72
2023/01/10 07:40:45;;;;;;;0.50;0.50;;;;;;;5.06;99.17;99682.06;5024772;28;20097;-72
2023/01/10 07:43:11;;;;;;;1.65;1.63;;;;;;;5.13;99.53;99690.69;5024868;28;20026;-71
2023/01/10 07:45:36;;;;;;;0.50;0.50;;;;;;;5.15;99.29;99695.81;5028350;28;20085;-71
2023/01/10 07:48:03;;;;;;;0.70;0.70;;;;;;;5.16;99.47;99700.97;5028620;28;20030;-71
2023/01/10 07:50:33;;;;;;;0.40;0.40;;;;;;;5.16;98.95;99708.69;5028398;28;20116;-70
2023/01/10 07:52:59;;;;;;;0.50;0.50;;;;;;;5.17;99.16;99709.56;5043672;28;20065;-70
2023/01/10 07:55:26;;;;;;;0.50;0.50;;;;;;;5.19;99.06;99710.44;5026924;28;20037;-70
2023/01/10 07:57:52;;;;;;;0.50;0.50;;;;;;;5.16;98.88;99713.84;5028506;28;20026;-70
2023/01/10 08:00:18;;;;;;;0.40;0.40;;;;;;;5.18;98.85;99712.13;5028312;28;20033;-71
2023/01/10 08:02:44;;;;;;;0.40;0.40;;;;;;;5.22;98.94;99723.31;5028330;28;20106;-70
2023/01/10 08:05:09;;;;;;;0.55;0.55;;;;;;;5.20;98.77;99715.59;5028130;28;20049;-69
2023/01/10 08:07:36;;;;;;;0.50;0.50;;;;;;;5.27;98.72;99725.91;5028212;28;20026;-69
2023/01/10 08:10:02;;;;;;;0.50;0.50;;;;;;;5.29;98.61;99725.03;5028126;28;20079;-69
2023/01/10 08:12:27;;;;;;;0.50;0.50;;;;;;;5.27;98.74;99721.59;5028042;28;20467;-71
2023/01/10 08:14:53;;;;;;;0.50;0.50;;;;;;;5.31;98.62;99725.03;5027940;28;20022;-69
2023/01/10 08:17:19;;;;;;;0.50;0.50;;;;;;;5.29;99.11;99730.19;5043328;28;20021;-69
2023/01/10 08:19:44;;;;;;;0.50;0.50;;;;;;;5.26;98.54;99725.03;5027941;28;20490;-70
2023/01/10 08:22:10;;;;;;;0.93;0.93;;;;;;;5.30;98.62;99731.06;5026477;28;20034;-70
2023/01/10 08:24:36;;;;;;;0.50;0.50;;;;;;;5.32;98.76;99739.63;5027864;28;20022;-71
2023/01/10 08:27:01;;;;;;;0.50;0.50;;;;;;;5.31;98.56;99743.91;5027742;28;20029;-70
2023/01/10 08:29:27;;;;;;;0.50;0.50;;;;;;;5.33;98.35;99738.78;5027663;28;20040;-70
2023/01/10 08:31:53;;;;;;;2.58;2.47;;;;;;;5.28;98.33;99723.31;5026368;28;20377;-70
2023/01/10 08:34:18;;;;;;;0.45;0.45;;;;;;;5.38;98.42;99749.09;5027632;28;20077;-70
2023/01/10 08:36:45;;;;;;;0.65;0.65;;;;;;;5.35;98.19;99744.78;5027477;28;20046;-70
2023/01/10 08:39:11;;;;;;;0.40;0.40;;;;;;;5.37;98.41;99753.34;5027396;28;20046;-70
2023/01/10 08:41:38;;;;;;;0.50;0.50;;;;;;;5.41;98.38;99759.38;5027683;28;20038;-70
2023/01/10 08:44:04;;;;;;;0.52;0.52;;;;;;;5.42;98.34;99761.97;5027727;28;20041;-70
2023/01/10 08:46:29;;;;;;;0.50;0.50;;;;;;;5.40;97.99;99755.09;5042406;28;20125;-69
2023/01/10 08:48:55;;;;;;;0.50;0.50;;;;;;;5.41;97.69;99760.25;5027540;28;20057;-70
2023/01/10 08:51:20;;;;;;;0.50;0.50;;;;;;;5.45;97.69;99755.94;5027178;28;20118;-70
2023/01/10 08:53:46;;;;;;;0.52;0.52;;;;;;;5.43;97.56;99758.53;5027444;28;20090;-69
2023/01/10 08:56:11;;;;;;;0.40;0.40;;;;;;;5.45;96.98;99768.81;5026060;28;20089;-69
2023/01/10 08:58:37;;;;;;;0.40;0.40;;;;;;;5.46;97.11;99771.41;5027620;28;20022;-69
2023/01/10 09:01:04;;;;;;;0.50;0.50;;;;;;;5.48;96.97;99776.56;5027425;28;20021;-68
2023/01/10 09:03:30;;;;;;;0.50;0.50;;;;;;;5.48;97.02;99766.25;5027185;28;20076;-69
2023/01/10 09:05:57;;;;;;;0.50;0.50;;;;;;;5.52;96.86;99757.69;5025451;28;20022;-69
2023/01/10 09:08:23;;;;;;;0.63;0.63;;;;;;;5.57;97.42;99774.00;5026982;28;20153;-70
2023/01/10 09:10:48;;;;;;;0.50;0.50;;;;;;;5.60;97.20;99775.72;5026934;28;20021;-69
2023/01/10 09:13:14;;;;;;;0.50;0.50;;;;;;;5.60;96.70;99775.72;5026883;28;20459;-70
2023/01/10 09:15:41;;;;;;;0.50;0.50;;;;;;;5.61;96.61;99779.19;5026894;28;20026;-69
2023/01/10 09:18:10;;;;;;;0.40;0.40;;;;;;;5.63;96.43;99775.75;5026707;28;20018;-69
2023/01/10 09:20:37;;;;;;;0.50;0.50;;;;;;;5.65;96.77;99781.75;5026671;28;20032;-69
2023/01/10 09:23:05;;;;;;;0.50;0.50;;;;;;;5.63;96.71;99780.88;5026591;28;20072;-69
2023/01/10 09:25:31;;;;;;;0.50;0.50;;;;;;;5.70;96.44;99790.34;5026392;28;20059;-71
2023/01/10 09:27:58;;;;;;;0.50;0.50;;;;;;;5.74;96.58;99790.34;5026654;28;20050;-71
2023/01/10 09:30:25;;;;;;;10.02;2.88;;;;;;;5.74;96.56;99798.06;5025254;28;20033;-71
2023/01/10 09:32:52;;;;;;;0.50;0.50;;;;;;;5.76;96.78;99804.94;5026418;28;20057;-71
2023/01/10 09:35:17;;;;;;;0.50;0.50;;;;;;;5.77;96.46;99809.25;5026389;28;20049;-71
2023/01/10 09:37:43;;;;;;;0.50;0.50;;;;;;;5.79;96.20;99807.53;5026244;28;20196;-71
2023/01/10 09:40:14;;;;;;;0.50;0.50;;;;;;;5.80;96.31;99819.53;5026068;28;20046;-71
2023/01/10 09:42:58;;;;;;;0.50;0.50;;;;;;;5.78;96.09;99800.66;5026453;28;20084;-71
2023/01/10 09:45:49;;;;;;;0.50;0.50;;;;;;;5.83;96.07;99808.41;5026274;28;20061;-72
2023/01/10 09:48:47;;;;;;;0.80;0.80;;;;;;;5.81;95.67;99816.09;5020786;28;20097;-70
2023/01/10 09:51:25;;;;;;;0.50;0.50;;;;;;;5.80;95.69;99823.81;5026022;28;20022;-72
2023/01/10 09:53:55;;;;;;;0.50;0.50;;;;;;;5.74;95.25;99816.09;5026093;28;20026;-71
2023/01/10 09:56:21;;;;;;;0.50;0.50;;;;;;;5.77;95.82;99818.66;5026069;28;20068;-71
2023/01/10 09:58:48;;;;;;;0.50;0.50;;;;;;;5.81;95.56;99830.72;5041394;28;20112;-74
2023/01/10 10:01:25;;;;;;;0.40;0.40;;;;;;;5.79;95.31;99827.28;5026158;28;20041;-71
2023/01/10 10:04:12;;;;;;;0.50;0.50;;;;;;;5.79;95.40;99832.44;5025903;28;20028;-71
2023/01/10 10:06:38;;;;;;;0.50;0.50;;;;;;;5.76;95.78;99822.13;5025402;28;20105;-72
2023/01/10 10:09:03;;;;;;;0.40;0.40;;;;;;;5.69;95.63;99811.81;5025863;28;20065;-72
2023/01/10 10:11:43;;;;;;;0.50;0.50;;;;;;;5.87;95.92;99829.84;5025981;28;20102;-71
2023/01/10 10:14:21;;;;;;;0.50;0.50;;;;;;;5.97;95.87;99833.31;5026055;28;20022;-71
2023/01/10 10:17:12;;;;;;;0.60;0.60;;;;;;;5.91;95.99;99814.41;5025826;28;20049;-71
2023/01/10 10:20:09;;;;;;;0.50;0.50;;;;;;;6.06;96.13;99835.94;5025888;28;20026;-71
2023/01/10 10:23:24;;;;;;;0.50;0.50;;;;;;;6.05;95.68;99844.53;5022465;28;20105;-72
2023/01/10 10:26:08;;;;;;;0.50;0.50;;;;;;;6.04;95.04;99845.34;5011387;28;20034;-71
2023/01/10 10:29:08;;;;;;;0.50;0.50;;;;;;;6.01;94.98;99853.94;5025664;28;20092;-71
2023/01/10 10:31:52;;;;;;;0.50;0.50;;;;;;;6.03;95.53;99861.66;5025757;28;20267;-71
2023/01/10 10:34:35;;;;;;;0.50;0.50;;;;;;;6.01;95.77;99856.50;5040799;28;20110;-71
2023/01/10 10:37:10;;;;;;;0.50;0.50;;;;;;;6.05;95.36;99860.00;5025342;28;20053;-71
2023/01/10 10:39:56;;;;;;;2.45;2.25;;;;;;;6.13;96.10;99863.44;5025433;28;20058;-71
2023/01/10 10:42:29;;;;;;;0.50;0.50;;;;;;;6.25;95.73;99864.28;5025508;28;20026;-71
2023/01/10 10:45:01;;;;;;;4.03;3.72;;;;;;;6.28;95.57;99872.03;5025304;28;20061;-70
2023/01/10 10:47:29;;;;;;;;;;;;;;;6.29;94.68;99873.75;5041094;28;20022;-71
2023/01/10 10:49:59;;;;;;;0.43;0.43;;;;;;;6.26;94.62;99878.91;5023952;28;19909;-70
2023/01/10 10:52:31;;;;;;;0.50;0.50;;;;;;;6.30;94.79;99872.91;5040309;28;20033;-71
2023/01/10 10:54:57;;;;;;;0.60;0.60;;;;;;;6.42;95.36;99879.78;5025251;28;20022;-71
2023/01/10 10:57:32;;;;;;;1.15;1.15;;;;;;;6.52;95.86;99865.16;5025617;28;20036;-71
2023/01/10 11:00:00;;;;;;;0.50;0.50;;;;;;;6.61;94.92;99880.66;5025252;28;20060;-72
2023/01/10 11:02:31;;;;;;;0.50;0.50;;;;;;;6.52;93.72;99878.91;5025618;28;20030;-71
2023/01/10 11:05:03;;;;;;;0.50;0.50;;;;;;;6.45;93.83;99877.22;5025626;28;20026;-71
2023/01/10 11:07:33;;;;;;;0.50;0.50;;;;;;;6.45;93.87;99879.78;5025613;28;20022;-71
2023/01/10 11:10:15;;;;;;;0.40;0.40;;;;;;;6.40;93.74;99876.34;5025576;28;20045;-71
2023/01/10 11:12:46;;;;;;;0.50;0.50;;;;;;;6.51;94.29;99872.03;5025348;28;20022;-70
2023/01/10 11:15:37;;;;;;;0.60;0.60;;;;;;;6.61;94.67;99870.31;5040336;28;20390;-71
2023/01/10 11:18:10;;;;;;;0.50;0.50;;;;;;;6.66;94.22;99873.75;5025215;28;20030;-71
2023/01/10 11:20:36;;;;;;;0.40;0.40;;;;;;;6.55;93.48;99867.75;5044122;28;20018;-71
2023/01/10 11:23:02;;;;;;;0.40;0.40;;;;;;;6.42;93.49;99869.47;5028615;28;20026;-70
2023/01/10 11:25:28;;;;;;;0.50;0.50;;;;;;;6.50;94.05;99872.88;5028723;28;20098;-70
2023/01/10 11:27:57;;;;;;;2.10;2.00;;;;;;;6.55;95.25;99860.03;5028930;28;20019;-71
2023/01/10 11:30:26;;;;;;;0.50;0.50;;;;;;;6.66;94.58;99880.63;5029715;28;20030;-71
2023/01/10 11:32:59;;;;;;;0.50;0.50;;;;;;;6.61;93.66;99890.97;5032071;28;20026;-75
2023/01/10 11:35:35;;;;;;;0.50;0.50;;;;;;;6.46;93.44;99871.19;5043998;28;20034;-74
2023/01/10 11:38:16;;;;;;;0.50;0.50;;;;;;;6.38;93.23;99878.91;5028590;28;20021;-74
2023/01/10 11:40:54;;;;;;;0.47;0.47;;;;;;;6.25;93.20;99882.34;5028515;28;20046;-75
2023/01/10 11:43:35;;;;;;;0.50;0.50;;;;;;;6.23;93.27;99881.50;5028661;28;20021;-75
2023/01/10 11:46:11;;;;;;;0.60;0.60;;;;;;;6.08;93.13;99870.31;5028389;28;20041;-76
2023/01/10 11:48:48;;;;;;;0.50;0.50;;;;;;;6.08;93.66;99883.19;5028738;28;20038;-75
2023/01/10 11:51:16;;;;;;;0.50;0.50;;;;;;;6.09;93.70;99882.31;5028323;28;20081;-75
2023/01/10 11:53:43;;;;;;;2.58;2.40;;;;;;;6.03;94.05;99870.25;5043506;28;20057;-77